createdAt,value
2022-11-29T00:01:57.039Z,102177.56
2022-11-29T00:04:27.758Z,102190.56
2022-11-29T00:06:57.811Z,102175.19
2022-11-29T00:09:27.982Z,102185.69
2022-11-29T00:12:13.437Z,102175.09
2022-11-29T00:14:43.833Z,102168.72
2022-11-29T00:17:14.144Z,102169.69
2022-11-29T00:19:45.354Z,102172.53
2022-11-29T00:22:15.530Z,102169.81
2022-11-29T00:24:46.151Z,102179.81
2022-11-29T00:27:16.426Z,102158.47
2022-11-29T00:29:46.535Z,102185.16
2022-11-29T00:32:16.621Z,102189.56
2022-11-29T00:34:46.758Z,102183.53
2022-11-29T00:37:17.861Z,102175.59
2022-11-29T00:39:48.383Z,102171.25
2022-11-29T00:42:18.498Z,102182.75
2022-11-29T00:44:48.556Z,102185.41
2022-11-29T00:47:18.846Z,102185.50
2022-11-29T00:49:49.017Z,102174.72
2022-11-29T00:52:19.231Z,102179.19
2022-11-29T00:54:49.321Z,102188.47
2022-11-29T00:57:19.511Z,102185.16
2022-11-29T00:59:49.574Z,102184.19
2022-11-29T01:02:19.889Z,102179.00
2022-11-29T01:04:50.007Z,102182.53
2022-11-29T01:07:20.575Z,102193.53
2022-11-29T01:09:51.046Z,102162.19
2022-11-29T01:12:21.122Z,102185.78
2022-11-29T01:14:51.169Z,102180.63
2022-11-29T01:17:21.346Z,102170.06
2022-11-29T01:19:51.536Z,102189.56
2022-11-29T01:22:21.584Z,102185.41
2022-11-29T01:24:51.857Z,102168.88
2022-11-29T01:27:21.998Z,102178.47
2022-11-29T01:29:52.169Z,102166.16
2022-11-29T01:32:22.416Z,102176.66
2022-11-29T01:34:52.551Z,102180.19
2022-11-29T01:37:22.723Z,102170.00
2022-11-29T01:39:52.822Z,102164.66
2022-11-29T01:42:23.312Z,102161.94
2022-11-29T01:45:08.120Z,102162.81
2022-11-29T01:47:43.860Z,102180.25
2022-11-29T01:50:14.461Z,102172.25
2022-11-29T01:52:45.945Z,102156.75
2022-11-29T01:55:16.691Z,102170.81
2022-11-29T01:57:48.432Z,102162.09
2022-11-29T02:00:20.191Z,102174.97
2022-11-29T02:03:15.061Z,102173.88
2022-11-29T02:05:49.286Z,102173.00
2022-11-29T02:08:31.662Z,102171.78
2022-11-29T02:11:31.089Z,102174.78
2022-11-29T02:14:38.101Z,102174.53
2022-11-29T02:17:19.088Z,102171.94
2022-11-29T02:20:07.185Z,102169.44
2022-11-29T02:23:23.174Z,102175.22
2022-11-29T02:26:10.448Z,102172.63
2022-11-29T02:29:08.164Z,102171.78
2022-11-29T02:31:59.318Z,102181.19
2022-11-29T02:34:54.481Z,102187.34
2022-11-29T02:37:50.291Z,102174.34
2022-11-29T02:40:36.551Z,102177.47
2022-11-29T02:43:31.355Z,102184.50
2022-11-29T02:46:01.414Z,102188.66
2022-11-29T02:49:39.315Z,102187.63
2022-11-29T02:52:19.603Z,102184.84
2022-11-29T02:55:04.720Z,102181.09
2022-11-29T02:57:50.793Z,102195.31
2022-11-29T03:00:23.208Z,102199.44
2022-11-29T03:03:05.493Z,102199.38
2022-11-29T03:05:57.967Z,102201.81
2022-11-29T03:08:43.423Z,102191.25
2022-11-29T03:11:48.559Z,102194.19
2022-11-29T03:14:28.609Z,102197.31
2022-11-29T03:17:25.841Z,102202.47
2022-11-29T03:20:24.109Z,102204.00
2022-11-29T03:23:00.253Z,102204.88
2022-11-29T03:25:42.633Z,102207.25
2022-11-29T03:29:07.359Z,102201.22
2022-11-29T03:31:44.828Z,102204.47
2022-11-29T03:34:57.123Z,102218.63
2022-11-29T03:37:52.399Z,102216.22
2022-11-29T03:41:10.129Z,102210.19
2022-11-29T03:43:52.264Z,102202.09
2022-11-29T03:46:46.483Z,102207.47
2022-11-29T03:49:36.015Z,102215.19
2022-11-29T03:52:32.466Z,102217.09
2022-11-29T03:55:05.559Z,102207.63
2022-11-29T03:57:41.780Z,102216.13
2022-11-29T04:00:13.486Z,102211.06
2022-11-29T04:03:12.971Z,102215.34
2022-11-29T04:05:51.975Z,102222.16
2022-11-29T04:08:28.514Z,102222.03
2022-11-29T04:11:35.140Z,102225.56
2022-11-29T04:14:34.021Z,102229.66
2022-11-29T04:17:27.186Z,102238.19
2022-11-29T04:20:06.173Z,102238.94
2022-11-29T04:22:42.184Z,102237.09
2022-11-29T04:25:27.576Z,102243.88
2022-11-29T04:28:03.251Z,102243.66
2022-11-29T04:30:47.869Z,102241.63
2022-11-29T04:33:50.162Z,102242.59
2022-11-29T04:36:47.375Z,102242.59
2022-11-29T04:39:59.181Z,102228.69
2022-11-29T04:42:46.466Z,102235.19
2022-11-29T04:45:35.012Z,102245.69
2022-11-29T04:48:32.935Z,102248.19
2022-11-29T04:51:24.943Z,102249.94
2022-11-29T04:53:57.755Z,102249.59
2022-11-29T04:56:37.956Z,102248.00
2022-11-29T04:59:36.939Z,102251.44
2022-11-29T05:02:06.951Z,102255.94
2022-11-29T05:04:37.082Z,102259.38
2022-11-29T05:08:02.634Z,102242.41
2022-11-29T05:10:40.305Z,102265.06
2022-11-29T05:13:21.958Z,102267.50
2022-11-29T05:16:11.402Z,102250.81
2022-11-29T05:18:53.719Z,102263.91
2022-11-29T05:21:51.166Z,102266.47
2022-11-29T05:24:30.730Z,102272.66
2022-11-29T05:27:19.728Z,102260.53
2022-11-29T05:29:54.562Z,102274.19
2022-11-29T05:32:30.910Z,102268.16
2022-11-29T05:35:19.699Z,102273.44
2022-11-29T05:37:52.819Z,102275.22
2022-11-29T05:40:28.584Z,102276.69
2022-11-29T05:43:32.532Z,102268.03
2022-11-29T05:46:02.712Z,102278.47
2022-11-29T05:48:53.234Z,102276.91
2022-11-29T05:51:52.847Z,102270.53
2022-11-29T05:55:19.556Z,102291.47
2022-11-29T05:58:05.754Z,102289.78
2022-11-29T06:00:53.986Z,102293.25
2022-11-29T06:03:33.704Z,102288.97
2022-11-29T06:06:14.627Z,102292.34
2022-11-29T06:08:58.657Z,102295.84
2022-11-29T06:11:39.908Z,102284.06
2022-11-29T06:14:39.165Z,102291.94
2022-11-29T06:17:33.096Z,102304.78
2022-11-29T06:20:18.736Z,102284.94
2022-11-29T06:22:58.675Z,102295.53
2022-11-29T06:25:36.034Z,102299.66
2022-11-29T06:28:18.147Z,102299.06
2022-11-29T06:30:57.484Z,102298.94
2022-11-29T06:33:41.975Z,102297.06
2022-11-29T06:36:24.382Z,102298.03
2022-11-29T06:38:54.643Z,102301.50
2022-11-29T06:41:25.135Z,102298.03
2022-11-29T06:43:55.697Z,102287.28
2022-11-29T06:46:31.891Z,102307.47
2022-11-29T06:49:07.931Z,102299.72
2022-11-29T06:51:59.192Z,102296.06
2022-11-29T06:54:52.621Z,102300.47
2022-11-29T06:57:45.185Z,102305.63
2022-11-29T07:00:27.205Z,102312.53
2022-11-29T07:03:11.361Z,102320.25
2022-11-29T07:05:41.931Z,102302.97
2022-11-29T07:08:22.968Z,102317.88
2022-11-29T07:10:55.751Z,102314.44
2022-11-29T07:13:26.060Z,102291.56
2022-11-29T07:16:07.457Z,102319.59
2022-11-29T07:18:59.746Z,102320.69
2022-11-29T07:21:32.809Z,102315.63
2022-11-29T07:24:05.909Z,102324.38
2022-11-29T07:26:56.520Z,102330.28
2022-11-29T07:29:35.439Z,102334.75
2022-11-29T07:32:47.278Z,102323.66
2022-11-29T07:36:10.638Z,102342.47
2022-11-29T07:38:46.618Z,102343.16
2022-11-29T07:41:19.496Z,102344.03
2022-11-29T07:44:06.867Z,102325.41
2022-11-29T07:46:36.954Z,102324.75
2022-11-29T07:49:10.514Z,102332.47
2022-11-29T07:51:40.721Z,102346.69
2022-11-29T07:54:19.721Z,102339.00
2022-11-29T07:56:49.835Z,102336.75
2022-11-29T07:59:20.267Z,102332.53
2022-11-29T08:01:50.977Z,102338.34
2022-11-29T08:04:22.295Z,102337.41
2022-11-29T08:06:52.409Z,102324.22
2022-11-29T08:09:22.600Z,102343.50
2022-11-29T08:11:54.429Z,102333.00
2022-11-29T08:14:26.304Z,102326.34
2022-11-29T08:16:56.439Z,102337.97
2022-11-29T08:19:26.505Z,102318.72
2022-11-29T08:21:56.647Z,102330.19
2022-11-29T08:24:27.215Z,102329.31
2022-11-29T08:26:57.496Z,102323.13
2022-11-29T08:29:27.703Z,102326.88
2022-11-29T08:31:58.564Z,102324.28
2022-11-29T08:34:28.986Z,102337.69
2022-11-29T08:36:59.053Z,102332.22
2022-11-29T08:39:29.225Z,102318.19
2022-11-29T08:41:59.364Z,102330.00
2022-11-29T08:44:29.544Z,102327.41
2022-11-29T08:47:18.290Z,102321.47
2022-11-29T08:50:03.809Z,102324.31
2022-11-29T08:52:54.496Z,102326.44
2022-11-29T08:55:28.670Z,102301.94
2022-11-29T08:58:05.523Z,102315.25
2022-11-29T09:00:36.469Z,102328.13
2022-11-29T09:03:26.011Z,102321.28
2022-11-29T09:05:56.252Z,102323.94
2022-11-29T09:08:26.343Z,102318.91
2022-11-29T09:10:56.486Z,102314.50
2022-11-29T09:13:26.787Z,102318.97
2022-11-29T09:15:57.714Z,102308.53
2022-11-29T09:18:28.910Z,102302.56
2022-11-29T09:20:59.567Z,102313.81
2022-11-29T09:23:29.684Z,102313.69
2022-11-29T09:25:59.909Z,102326.03
2022-11-29T09:28:30.458Z,102325.88
2022-11-29T09:31:13.405Z,102317.56
2022-11-29T09:33:43.801Z,102322.72
2022-11-29T09:36:14.065Z,102314.16
2022-11-29T09:38:44.180Z,102320.47
2022-11-29T09:41:48.702Z,102316.34
2022-11-29T09:44:34.189Z,102322.25
2022-11-29T09:47:12.121Z,102314.31
2022-11-29T09:50:16.927Z,102318.03
2022-11-29T09:53:05.746Z,102313.00
2022-11-29T09:56:13.517Z,102318.28
2022-11-29T09:58:57.692Z,102309.56
2022-11-29T10:01:32.970Z,102303.53
2022-11-29T10:04:14.989Z,102310.44
2022-11-29T10:07:14.477Z,102310.44
2022-11-29T10:09:49.752Z,102322.03
2022-11-29T10:12:42.722Z,102328.50
2022-11-29T10:15:27.565Z,102330.16
2022-11-29T10:18:07.448Z,102329.41
2022-11-29T10:20:43.564Z,102328.81
2022-11-29T10:23:33.993Z,102329.50
2022-11-29T10:26:08.231Z,102323.25
2022-11-29T10:28:45.383Z,102329.56
2022-11-29T10:31:49.675Z,102330.72
2022-11-29T10:34:22.896Z,102328.91
2022-11-29T10:37:02.807Z,102333.16
2022-11-29T10:39:55.121Z,102330.56
2022-11-29T10:42:46.599Z,102330.53
2022-11-29T10:45:16.774Z,102334.84
2022-11-29T10:47:48.387Z,102330.53
2022-11-29T10:50:27.787Z,102322.63
2022-11-29T10:53:12.433Z,102322.91
2022-11-29T10:55:54.160Z,102327.78
2022-11-29T10:58:29.042Z,102334.94
2022-11-29T11:01:08.935Z,102335.06
2022-11-29T11:03:52.819Z,102339.25
2022-11-29T11:06:27.062Z,102331.06
2022-11-29T11:09:14.878Z,102334.84
2022-11-29T11:11:52.310Z,102328.50
2022-11-29T11:14:32.040Z,102351.41
2022-11-29T11:17:26.461Z,102348.81
2022-11-29T11:20:01.144Z,102353.78
2022-11-29T11:22:33.398Z,102341.63
2022-11-29T11:25:24.658Z,102343.97
2022-11-29T11:27:55.843Z,102335.97
2022-11-29T11:30:28.990Z,102352.38
2022-11-29T11:33:23.023Z,102341.91
2022-11-29T11:36:09.852Z,102331.59
2022-11-29T11:38:49.779Z,102351.22
2022-11-29T11:41:46.391Z,102351.63
2022-11-29T11:44:50.235Z,102349.34
2022-11-29T11:47:22.651Z,102350.75
2022-11-29T11:50:04.648Z,102353.38
2022-11-29T11:52:46.115Z,102343.63
2022-11-29T11:55:28.443Z,102350.81
2022-11-29T11:58:03.378Z,102339.50
2022-11-29T12:03:36.228Z,102354.34
2022-11-29T12:06:06.485Z,102361.28
2022-11-29T12:08:38.386Z,102360.25
2022-11-29T12:11:12.099Z,102362.91
2022-11-29T12:13:49.255Z,102336.34
2022-11-29T12:16:32.669Z,102368.66
2022-11-29T12:19:12.376Z,102370.69
2022-11-29T12:21:47.690Z,102361.88
2022-11-29T12:24:48.539Z,102368.47
2022-11-29T12:27:18.943Z,102366.56
2022-11-29T12:29:49.485Z,102366.38
2022-11-29T12:32:40.808Z,102381.22
2022-11-29T12:35:23.507Z,102381.22
2022-11-29T12:38:08.009Z,102374.97
2022-11-29T12:40:58.454Z,102372.56
2022-11-29T12:43:48.847Z,102380.28
2022-11-29T12:46:28.249Z,102376.59
2022-11-29T12:49:04.547Z,102386.16
2022-11-29T12:51:34.586Z,102385.25
2022-11-29T12:54:43.614Z,102393.03
2022-11-29T12:57:14.004Z,102388.69
2022-11-29T13:00:02.539Z,102385.16
2022-11-29T13:02:53.848Z,102391.94
2022-11-29T13:05:50.685Z,102386.50
2022-11-29T13:08:29.758Z,102365.41
2022-11-29T13:11:14.685Z,102381.16
2022-11-29T13:14:03.658Z,102378.66
2022-11-29T13:17:13.495Z,102400.72
2022-11-29T13:19:55.744Z,102398.06
2022-11-29T13:22:45.926Z,102400.47
2022-11-29T13:25:25.717Z,102409.13
2022-11-29T13:28:07.239Z,102406.34
2022-11-29T13:30:39.668Z,102418.50
2022-11-29T13:33:21.835Z,102389.72
2022-11-29T13:36:04.052Z,102413.47
2022-11-29T13:38:43.505Z,102411.72
2022-11-29T13:41:25.063Z,102408.19
2022-11-29T13:44:22.425Z,102380.53
2022-11-29T13:47:13.804Z,102415.50
2022-11-29T13:49:57.226Z,102410.25
2022-11-29T13:52:41.856Z,102417.88
2022-11-29T13:55:11.935Z,102411.09
2022-11-29T14:00:49.913Z,102420.38
2022-11-29T14:03:41.127Z,102419.28
2022-11-29T14:06:21.310Z,102422.72
2022-11-29T14:09:19.316Z,102426.13
2022-11-29T14:12:25.647Z,102421.78
2022-11-29T14:15:01.320Z,102429.44
2022-11-29T14:18:02.998Z,102433.56
2022-11-29T14:20:54.170Z,102419.31
2022-11-29T14:23:53.751Z,102433.50
2022-11-29T14:26:28.598Z,102432.53
2022-11-29T14:29:00.167Z,102429.91
2022-11-29T14:31:53.615Z,102436.16
2022-11-29T14:34:33.543Z,102427.16
2022-11-29T14:37:22.591Z,102430.69
2022-11-29T14:39:57.707Z,102432.41
2022-11-29T14:42:31.365Z,102429.31
2022-11-29T14:45:05.143Z,102427.47
2022-11-29T14:47:41.377Z,102442.19
2022-11-29T14:50:33.875Z,102438.75
2022-11-29T14:53:06.549Z,102430.56
2022-11-29T14:55:39.003Z,102432.09
2022-11-29T14:58:17.661Z,102441.03
2022-11-29T15:00:47.734Z,102444.50
2022-11-29T15:03:24.457Z,102442.41
2022-11-29T15:06:09.542Z,102446.91
2022-11-29T15:09:01.690Z,102455.69
2022-11-29T15:11:56.333Z,102443.69
2022-11-29T15:14:29.372Z,102451.63
2022-11-29T15:17:11.522Z,102453.34
2022-11-29T15:20:22.202Z,102454.28
2022-11-29T15:22:54.273Z,102433.69
2022-11-29T15:25:32.006Z,102453.69
2022-11-29T15:28:06.651Z,102448.63
2022-11-29T15:30:39.462Z,102436.47
2022-11-29T15:33:25.732Z,102444.50
2022-11-29T15:36:08.397Z,102454.81
2022-11-29T15:38:52.587Z,102446.03
2022-11-29T15:41:27.139Z,102439.84
2022-11-29T15:44:02.830Z,102449.22
2022-11-29T15:46:35.494Z,102456.25
2022-11-29T15:49:25.830Z,102462.38
2022-11-29T15:52:07.820Z,102453.78
2022-11-29T15:54:49.231Z,102459.22
2022-11-29T15:57:26.499Z,102458.41
2022-11-29T16:00:00.451Z,102458.41
2022-11-29T16:02:33.294Z,102452.69
2022-11-29T16:05:11.387Z,102459.75
2022-11-29T16:07:43.162Z,102444.22
2022-11-29T16:10:18.320Z,102462.59
2022-11-29T16:13:05.245Z,102465.25
2022-11-29T16:15:36.855Z,102466.13
2022-11-29T16:18:16.679Z,102469.31
2022-11-29T16:21:00.183Z,102465.69
2022-11-29T16:23:44.001Z,102445.38
2022-11-29T16:26:19.297Z,102475.91
2022-11-29T16:28:51.888Z,102466.22
2022-11-29T16:31:24.726Z,102459.78
2022-11-29T16:33:55.154Z,102465.75
2022-11-29T16:36:27.230Z,102480.81
2022-11-29T16:39:07.100Z,102480.16
2022-11-29T16:41:39.035Z,102474.50
2022-11-29T16:44:40.899Z,102496.16
2022-11-29T16:47:16.310Z,102487.47
2022-11-29T16:50:09.853Z,102474.22
2022-11-29T16:52:40.058Z,102496.91
2022-11-29T16:55:10.457Z,102496.78
2022-11-29T16:57:40.797Z,102499.25
2022-11-29T17:00:12.258Z,102487.63
2022-11-29T17:02:42.620Z,102504.28
2022-11-29T17:05:12.997Z,102503.13
2022-11-29T17:07:44.031Z,102504.38
2022-11-29T17:10:18.138Z,102514.81
2022-11-29T17:12:48.593Z,102509.63
2022-11-29T17:15:18.735Z,102493.75
2022-11-29T17:17:49.248Z,102517.34
2022-11-29T17:20:19.415Z,102515.63
2022-11-29T17:22:49.540Z,102516.28
2022-11-29T17:25:19.664Z,102523.47
2022-11-29T17:27:49.742Z,102531.88
2022-11-29T17:30:19.997Z,102538.69
2022-11-29T17:32:50.126Z,102526.69
2022-11-29T17:35:20.256Z,102527.47
2022-11-29T17:37:50.292Z,102522.16
2022-11-29T17:40:20.472Z,102523.38
2022-11-29T17:42:50.630Z,102519.19
2022-11-29T17:45:20.789Z,102525.84
2022-11-29T17:47:52.956Z,102535.59
2022-11-29T17:50:23.535Z,102514.44
2022-11-29T17:52:53.580Z,102521.53
2022-11-29T17:55:28.254Z,102507.78
2022-11-29T17:57:59.641Z,102533.44
2022-11-29T18:00:29.824Z,102520.00
2022-11-29T18:03:00.124Z,102539.47
2022-11-29T18:05:34.467Z,102537.84
2022-11-29T18:08:06.036Z,102530.41
2022-11-29T18:10:36.514Z,102527.22
2022-11-29T18:13:06.706Z,102480.22
2022-11-29T18:15:36.867Z,102539.59
2022-11-29T18:18:07.005Z,102540.53
2022-11-29T18:20:37.180Z,102535.28
2022-11-29T18:23:08.231Z,102539.78
2022-11-29T18:25:39.918Z,102533.56
2022-11-29T18:28:11.451Z,102534.63
2022-11-29T18:30:41.762Z,102540.56
2022-11-29T18:33:11.874Z,102550.66
2022-11-29T18:35:42.069Z,102525.38
2022-11-29T18:38:15.999Z,102523.69
2022-11-29T18:40:46.548Z,102534.31
2022-11-29T18:43:17.009Z,102541.06
2022-11-29T18:45:47.212Z,102537.63
2022-11-29T18:48:17.330Z,102546.16
2022-11-29T18:50:47.439Z,102551.31
2022-11-29T18:53:17.564Z,102536.31
2022-11-29T18:55:47.945Z,102552.09
2022-11-29T18:58:18.004Z,102549.53
2022-11-29T19:00:48.357Z,102554.81
2022-11-29T19:03:18.543Z,102549.28
2022-11-29T19:05:52.805Z,102553.72
2022-11-29T19:08:26.171Z,102551.78
2022-11-29T19:10:56.737Z,102550.25
2022-11-29T19:13:26.781Z,102562.56
2022-11-29T19:15:57.082Z,102545.94
2022-11-29T19:18:27.405Z,102559.03
2022-11-29T19:21:05.595Z,102559.97
2022-11-29T19:23:35.699Z,102558.47
2022-11-29T19:26:13.902Z,102570.69
2022-11-29T19:28:46.097Z,102564.50
2022-11-29T19:31:19.385Z,102567.94
2022-11-29T19:33:49.652Z,102561.03
2022-11-29T19:36:23.259Z,102553.06
2022-11-29T19:38:54.429Z,102561.03
2022-11-29T19:41:30.736Z,102547.53
2022-11-29T19:44:04.188Z,102553.81
2022-11-29T19:46:40.750Z,102560.06
2022-11-29T19:49:11.836Z,102574.16
2022-11-29T19:51:41.982Z,102565.13
2022-11-29T19:54:12.255Z,102565.81
2022-11-29T19:56:42.510Z,102573.03
2022-11-29T19:59:12.590Z,102569.63
2022-11-29T20:01:43.343Z,102563.59
2022-11-29T20:04:15.290Z,102557.50
2022-11-29T20:06:45.893Z,102565.63
2022-11-29T20:09:16.091Z,102574.47
2022-11-29T20:11:46.239Z,102571.06
2022-11-29T20:14:16.691Z,102566.75
2022-11-29T20:16:46.884Z,102551.78
2022-11-29T20:19:17.661Z,102545.59
2022-11-29T20:21:49.123Z,102556.94
2022-11-29T20:24:19.683Z,102564.00
2022-11-29T20:26:50.207Z,102567.63
2022-11-29T20:29:21.968Z,102567.72
2022-11-29T20:31:52.090Z,102571.31
2022-11-29T20:34:22.551Z,102585.25
2022-11-29T20:37:37.624Z,102582.56
2022-11-29T20:40:16.833Z,102580.97
2022-11-29T20:42:58.615Z,102559.75
2022-11-29T20:45:28.965Z,102570.94
2022-11-29T20:48:07.307Z,102565.69
2022-11-29T20:50:37.913Z,102568.22
2022-11-29T20:53:23.017Z,102579.13
2022-11-29T20:55:56.702Z,102559.34
2022-11-29T20:58:26.918Z,102571.94
2022-11-29T21:00:57.185Z,102582.44
2022-11-29T21:03:29.030Z,102584.38
2022-11-29T21:06:04.092Z,102584.41
2022-11-29T21:08:34.826Z,102588.94
2022-11-29T21:11:07.909Z,102584.59
2022-11-29T21:13:38.761Z,102595.88
2022-11-29T21:16:11.552Z,102586.22
2022-11-29T21:18:41.875Z,102588.56
2022-11-29T21:21:42.694Z,102586.94
2022-11-29T21:24:24.753Z,102575.34
2022-11-29T21:26:54.929Z,102598.28
2022-11-29T21:29:27.659Z,102594.66
2022-11-29T21:31:58.045Z,102592.75
2022-11-29T21:34:28.274Z,102580.50
2022-11-29T21:36:59.764Z,102599.97
2022-11-29T21:39:34.386Z,102598.03
2022-11-29T21:42:05.001Z,102586.84
2022-11-29T21:44:35.285Z,102595.56
2022-11-29T21:47:05.690Z,102588.84
2022-11-29T21:49:35.936Z,102596.56
2022-11-29T21:52:06.654Z,102590.63
2022-11-29T21:54:36.764Z,102594.09
2022-11-29T21:57:06.862Z,102586.13
2022-11-29T21:59:36.987Z,102583.22
2022-11-29T22:02:07.647Z,102588.59
2022-11-29T22:04:37.801Z,102593.22
2022-11-29T22:07:08.340Z,102594.16
2022-11-29T22:09:38.587Z,102602.88
2022-11-29T22:12:31.805Z,102596.50
2022-11-29T22:14:58.925Z,102596.66
2022-11-29T22:17:29.174Z,102584.41
2022-11-29T22:19:59.439Z,102599.38
2022-11-29T22:22:30.304Z,102603.97
2022-11-29T22:25:00.446Z,102605.00
2022-11-29T22:27:30.591Z,102609.13
2022-11-29T22:30:00.784Z,102608.25
2022-11-29T22:32:31.057Z,102622.03
2022-11-29T22:35:01.944Z,102619.34
2022-11-29T22:37:32.557Z,102609.91
2022-11-29T22:40:02.953Z,102603.34
2022-11-29T22:42:33.181Z,102614.94
2022-11-29T22:45:04.521Z,102605.22
2022-11-29T22:47:34.703Z,102609.88
2022-11-29T22:50:05.349Z,102610.28
2022-11-29T22:52:35.545Z,102612.75
2022-11-29T22:55:06.012Z,102615.66
2022-11-29T22:57:36.579Z,102618.31
2022-11-29T23:00:07.395Z,102621.78
2022-11-29T23:02:37.591Z,102615.81
2022-11-29T23:05:09.482Z,102613.31
2022-11-29T23:07:39.724Z,102607.69
2022-11-29T23:10:10.303Z,102583.06
2022-11-29T23:12:40.992Z,102609.53
2022-11-29T23:15:11.201Z,102618.31
2022-11-29T23:17:42.728Z,102608.44
2022-11-29T23:20:13.367Z,102622.53
2022-11-29T23:22:43.542Z,102618.00
2022-11-29T23:25:13.614Z,102620.66
2022-11-29T23:27:43.743Z,102619.63
2022-11-29T23:30:14.268Z,102624.03
2022-11-29T23:32:44.267Z,102625.16
2022-11-29T23:35:14.594Z,102610.41
2022-11-29T23:37:44.764Z,102608.44
2022-11-29T23:40:14.945Z,102613.63
2022-11-29T23:42:47.198Z,102610.84
2022-11-29T23:45:17.537Z,102602.22
2022-11-29T23:47:47.650Z,102605.75
2022-11-29T23:50:17.824Z,102611.88
2022-11-29T23:52:55.351Z,102605.38
2022-11-29T23:55:26.326Z,102611.97
2022-11-29T23:57:56.469Z,102619.84
